Time;durP1;ratioP1;P1;durP2;ratioP2;P2;SDS_P1;SDS_P2;PMS_P1;PMS_P2;Temp;Humidity;BMP_temperature;BMP_pressure;BME280_temperature;BME280_humidity;BME280_pressure;Samples;Min_cycle;Max_cycle;Signal;HPM_P1;HPM_P2
2022/10/31 00:09:31;;;;;;;3.03;1.33;;;12.90;99.90;;;;;;20742657;28;20037;-39
2022/10/31 00:19:32;;;;;;;2.53;1.20;;;12.90;99.90;;;;;;20740857;28;20049;-39
2022/10/31 00:29:33;;;;;;;2.78;1.70;;;12.90;99.90;;;;;;20738925;28;20052;-39
2022/10/31 00:39:34;;;;;;;3.15;1.58;;;12.90;99.90;;;;;;20739116;28;21916;-39
2022/10/31 00:49:35;;;;;;;4.53;1.88;;;12.80;99.90;;;;;;20736450;28;20033;-39
2022/10/31 00:59:36;;;;;;;4.82;2.65;;;12.80;99.90;;;;;;20734308;28;20042;-39
2022/10/31 01:09:37;;;;;;;2.90;1.65;;;12.70;99.90;;;;;;20736421;28;20049;-39
2022/10/31 01:19:38;;;;;;;6.88;2.65;;;12.60;99.90;;;;;;20733217;28;20104;-39
2022/10/31 01:29:39;;;;;;;3.90;2.08;;;12.60;99.90;;;;;;20728857;28;20069;-39
2022/10/31 01:39:40;;;;;;;4.93;2.05;;;12.60;99.90;;;;;;20732446;28;20610;-39
2022/10/31 01:49:50;;;;;;;7.70;3.70;;;12.40;99.90;;;;;;20732221;28;20481;-39
2022/10/31 01:59:54;;;;;;;5.22;2.47;;;12.40;99.90;;;;;;20728337;28;20140;-39
2022/10/31 02:09:56;;;;;;;4.30;1.92;;;12.30;99.90;;;;;;20742155;28;20650;-39
2022/10/31 02:20:14;;;;;;;6.18;1.63;;;12.30;99.90;;;;;;20750373;28;20540;-39
2022/10/31 02:30:35;;;;;;;2.33;1.33;;;12.30;99.90;;;;;;20736270;28;20139;-39
2022/10/31 02:40:46;;;;;;;5.03;2.28;;;12.10;99.90;;;;;;20746698;28;20859;-39
2022/10/31 02:50:56;;;;;;;3.33;1.63;;;12.00;99.90;;;;;;20753573;28;20552;-39
2022/10/31 03:01:13;;;;;;;5.35;2.75;;;12.00;99.90;;;;;;20745503;28;20608;-39
2022/10/31 03:11:18;;;;;;;3.95;2.13;;;12.00;99.90;;;;;;20740413;28;20073;-39
2022/10/31 03:21:43;;;;;;;3.42;1.92;;;12.00;99.90;;;;;;20747196;28;20073;-39
2022/10/31 03:31:54;;;;;;;4.80;2.88;;;12.00;99.90;;;;;;20731375;28;20791;-39
2022/10/31 03:42:00;;;;;;;7.28;3.83;;;11.90;99.90;;;;;;20736841;28;20085;-39
2022/10/31 03:52:29;;;;;;;5.22;2.95;;;11.90;99.90;;;;;;20741433;28;20140;-39
2022/10/31 04:02:33;;;;;;;4.35;2.58;;;11.90;99.90;;;;;;20735437;28;20868;-39
2022/10/31 04:12:35;;;;;;;5.22;2.53;;;11.90;99.90;;;;;;20738542;28;20881;-39
2022/10/31 04:22:36;;;;;;;4.57;2.47;;;11.80;99.90;;;;;;20735188;28;20082;-39
2022/10/31 04:32:37;;;;;;;4.03;2.80;;;11.80;99.90;;;;;;20730781;28;20562;-39
2022/10/31 04:42:38;;;;;;;6.60;2.95;;;11.70;99.90;;;;;;20739094;28;20511;-39
2022/10/31 04:52:41;;;;;;;4.88;3.28;;;11.60;99.90;;;;;;20734925;28;20532;-39
2022/10/31 05:02:49;;;;;;;5.38;3.60;;;11.60;99.90;;;;;;20726547;28;20529;-39
2022/10/31 05:12:56;;;;;;;6.82;3.63;;;11.50;99.90;;;;;;20750736;28;20591;-39
2022/10/31 05:22:58;;;;;;;6.97;3.97;;;11.30;99.90;;;;;;20749601;28;20798;-39
2022/10/31 05:33:00;;;;;;;6.53;3.38;;;11.20;99.90;;;;;;20740300;28;20179;-39
2022/10/31 05:43:01;;;;;;;5.72;2.75;;;11.00;99.90;;;;;;20736786;28;20203;-39
2022/10/31 05:53:04;;;;;;;3.95;3.42;;;10.90;99.90;;;;;;20742889;28;20107;-39
2022/10/31 06:03:09;;;;;;;6.90;3.65;;;10.70;99.90;;;;;;20745692;28;20441;-39
2022/10/31 06:13:09;;;;;;;5.60;3.10;;;10.60;99.90;;;;;;20739555;28;20782;-39
2022/10/31 06:23:11;;;;;;;7.63;3.33;;;10.70;99.90;;;;;;20749847;28;20042;-39
2022/10/31 06:33:11;;;;;;;5.97;2.97;;;10.70;99.90;;;;;;20725122;28;20315;-39
2022/10/31 06:43:14;;;;;;;6.25;3.30;;;10.50;99.90;;;;;;20730177;28;20037;-39
2022/10/31 06:53:15;;;;;;;5.57;3.72;;;10.50;99.90;;;;;;20727770;28;20103;-39
2022/10/31 07:03:17;;;;;;;9.52;4.05;;;10.50;99.90;;;;;;20752608;28;20107;-39
2022/10/31 07:13:18;;;;;;;8.07;4.38;;;10.60;99.90;;;;;;20755117;28;20076;-39
2022/10/31 07:23:19;;;;;;;10.68;7.35;;;10.70;99.90;;;;;;20763260;28;20125;-39
2022/10/31 07:33:21;;;;;;;9.07;5.40;;;10.90;99.90;;;;;;20734169;28;20121;-39
2022/10/31 07:43:22;;;;;;;12.00;5.57;;;11.00;99.90;;;;;;20745611;28;20498;-39
2022/10/31 07:53:23;;;;;;;12.88;6.40;;;11.10;99.90;;;;;;20752843;28;20210;-39
2022/10/31 08:03:24;;;;;;;12.30;5.78;;;11.30;99.90;;;;;;20729776;28;20069;-39
2022/10/31 08:13:25;;;;;;;8.38;4.60;;;11.50;99.90;;;;;;20727813;28;20475;-39
2022/10/31 08:23:26;;;;;;;6.45;3.75;;;11.80;99.90;;;;;;20742934;28;20136;-39
2022/10/31 08:33:27;;;;;;;9.00;4.80;;;11.90;99.90;;;;;;20749452;28;20083;-39
2022/10/31 08:43:28;;;;;;;7.60;4.32;;;12.00;99.90;;;;;;20732420;28;20517;-39
2022/10/31 08:53:29;;;;;;;6.22;3.75;;;12.20;99.90;;;;;;20725792;28;20072;-39
2022/10/31 09:03:31;;;;;;;9.52;5.40;;;12.40;99.90;;;;;;20739488;28;20729;-39
2022/10/31 09:13:32;;;;;;;9.40;5.13;;;12.70;99.90;;;;;;20730727;28;20119;-39
2022/10/31 09:23:33;;;;;;;10.18;5.53;;;13.00;99.90;;;;;;20705761;28;20045;-39
2022/10/31 09:33:34;;;;;;;15.38;6.20;;;13.20;99.90;;;;;;20722881;28;20073;-39
2022/10/31 09:43:56;;;;;;;11.40;5.90;;;13.50;99.90;;;;;;20734582;28;20386;-39
2022/10/31 09:54:15;;;;;;;12.43;6.28;;;13.80;99.90;;;;;;20739022;28;20061;-39
2022/10/31 10:04:37;;;;;;;9.00;4.97;;;14.00;99.90;;;;;;20725032;28;20786;-39
2022/10/31 10:15:07;;;;;;;8.48;5.22;;;14.20;99.90;;;;;;20721141;28;21927;-39
2022/10/31 10:25:11;;;;;;;6.18;3.17;;;14.40;99.90;;;;;;20720894;28;20357;-39
2022/10/31 10:35:34;;;;;;;8.23;4.20;;;14.50;99.90;;;;;;20748834;28;20057;-39
2022/10/31 10:56:11;;;;;;;6.45;3.75;;;15.10;99.90;;;;;;20759927;28;20050;-39
2022/10/31 11:06:32;;;;;;;5.80;3.15;;;15.40;99.90;;;;;;20815395;28;20061;-39
2022/10/31 11:16:38;;;;;;;7.68;3.10;;;15.40;99.90;;;;;;20773967;28;20570;-39
2022/10/31 11:26:41;;;;;;;6.13;3.33;;;15.40;99.90;;;;;;20787105;28;20074;-39
2022/10/31 11:36:44;;;;;;;8.05;4.15;;;15.50;99.90;;;;;;20799903;28;20131;-39
2022/10/31 11:46:47;;;;;;;11.13;4.38;;;15.80;99.90;;;;;;20721521;28;20441;-39
2022/10/31 11:56:48;;;;;;;9.52;4.60;;;15.70;99.90;;;;;;20740365;28;20111;-39
2022/10/31 12:06:50;;;;;;;16.55;6.97;;;15.70;99.90;;;;;;20737021;28;20124;-39
2022/10/31 12:16:57;;;;;;;8.50;5.20;;;15.70;99.90;;;;;;20751878;28;21685;-39
2022/10/31 12:27:11;;;;;;;13.27;5.88;;;15.80;99.90;;;;;;20748501;28;20743;-39
2022/10/31 12:37:25;;;;;;;17.55;5.82;;;15.90;99.90;;;;;;20703234;28;20107;-39
2022/10/31 12:47:57;;;;;;;9.00;5.53;;;15.80;99.90;;;;;;20684345;28;20051;-39
2022/10/31 12:58:05;;;;;;;14.55;6.47;;;15.90;99.90;;;;;;20683521;28;21857;-39
2022/10/31 13:08:34;;;;;;;9.40;5.82;;;16.00;99.90;;;;;;20650565;28;20050;-39
2022/10/31 13:18:52;;;;;;;14.27;5.65;;;16.20;99.90;;;;;;20685679;28;21742;-39
2022/10/31 13:29:30;;;;;;;11.77;6.75;;;16.20;99.90;;;;;;20663767;28;20053;-39
2022/10/31 13:39:43;;;;;;;11.57;5.67;;;16.30;99.90;;;;;;20741678;28;21859;-40
2022/10/31 13:49:44;;;;;;;5.50;4.07;;;16.30;99.90;;;;;;20700977;28;22894;-39
2022/10/31 14:00:15;;;;;;;8.85;4.78;;;16.20;99.90;;;;;;20754660;28;20068;-40
2022/10/31 14:10:36;;;;;;;8.30;5.35;;;16.20;99.90;;;;;;20722654;28;20590;-40
2022/10/31 14:20:37;;;;;;;9.57;4.93;;;16.10;99.90;;;;;;20727541;28;20939;-40
2022/10/31 14:30:38;;;;;;;8.30;3.78;;;16.10;99.90;;;;;;20747515;28;20922;-40
2022/10/31 14:41:27;;;;;;;9.77;5.47;;;16.00;99.90;;;;;;20741647;28;20230;-40
2022/10/31 14:51:36;;;;;;;7.55;4.38;;;15.90;99.90;;;;;;20731555;28;20052;-40
2022/10/31 15:01:39;;;;;;;8.40;4.95;;;15.90;99.90;;;;;;20745915;28;20830;-40
2022/10/31 15:11:40;;;;;;;13.25;4.38;;;15.80;99.90;;;;;;20747028;28;20137;-40
2022/10/31 15:21:46;;;;;;;9.73;4.82;;;15.80;99.90;;;;;;20750005;28;20042;-40
2022/10/31 15:31:56;;;;;;;7.53;4.00;;;15.60;99.90;;;;;;20757174;28;20120;-40
2022/10/31 15:41:58;;;;;;;12.30;4.75;;;15.60;99.90;;;;;;20761799;28;20305;-40
2022/10/31 15:52:07;;;;;;;10.30;5.38;;;15.50;99.90;;;;;;20772331;28;20195;-40
2022/10/31 16:02:12;;;;;;;10.93;4.93;;;15.40;99.90;;;;;;20767478;28;20637;-40
2022/10/31 16:12:14;;;;;;;7.38;4.28;;;15.40;99.90;;;;;;20754288;28;20052;-40
2022/10/31 16:22:22;;;;;;;9.98;4.82;;;15.30;99.90;;;;;;20758570;28;20044;-40
2022/10/31 16:32:36;;;;;;;15.70;5.37;;;15.30;99.90;;;;;;20751698;28;20420;-40
2022/10/31 16:42:37;;;;;;;9.55;5.93;;;15.20;99.90;;;;;;20684380;28;20851;-40
2022/10/31 16:52:38;;;;;;;12.27;6.32;;;15.20;99.90;;;;;;20660161;28;20126;-40
2022/10/31 17:02:39;;;;;;;28.55;7.07;;;15.30;99.90;;;;;;20686141;28;20054;-40
2022/10/31 17:12:45;;;;;;;10.70;6.13;;;15.30;99.90;;;;;;20701778;28;20456;-40
2022/10/31 17:22:46;;;;;;;8.20;4.75;;;15.30;99.90;;;;;;20704840;28;20080;-40
2022/10/31 17:32:48;;;;;;;10.57;5.63;;;15.30;99.90;;;;;;20714628;28;21789;-40
2022/10/31 17:42:54;;;;;;;13.63;5.97;;;15.20;99.90;;;;;;20757875;28;20124;-40
2022/10/31 17:52:57;;;;;;;12.07;6.95;;;15.10;99.90;;;;;;20765858;28;20160;-40
2022/10/31 18:02:58;;;;;;;14.02;6.03;;;15.10;99.90;;;;;;20771913;28;20078;-40
2022/10/31 18:12:59;;;;;;;10.18;6.30;;;15.10;99.90;;;;;;20786683;28;20048;-40
2022/10/31 18:23:00;;;;;;;10.55;5.55;;;15.00;99.90;;;;;;20750695;28;20073;-40
2022/10/31 18:33:01;;;;;;;12.25;6.30;;;14.70;99.90;;;;;;20758643;28;20093;-40
2022/10/31 18:43:02;;;;;;;12.38;5.40;;;14.70;99.90;;;;;;20759448;28;20068;-40
2022/10/31 18:53:03;;;;;;;15.80;5.50;;;14.70;99.90;;;;;;20742575;28;20419;-40
2022/10/31 19:03:05;;;;;;;11.80;6.28;;;14.80;99.90;;;;;;20776355;28;20429;-40
2022/10/31 19:13:06;;;;;;;7.43;4.55;;;14.80;99.90;;;;;;20782456;28;20057;-39
2022/10/31 19:23:07;;;;;;;7.32;4.10;;;15.10;99.90;;;;;;20763255;28;20124;-40
2022/10/31 19:33:08;;;;;;;10.32;4.88;;;15.20;99.90;;;;;;20764165;28;20060;-40
2022/10/31 19:43:09;;;;;;;7.38;3.70;;;15.10;99.90;;;;;;20757106;28;20056;-40
2022/10/31 19:53:10;;;;;;;7.57;3.63;;;15.00;99.90;;;;;;20769578;28;20080;-40
2022/10/31 20:03:11;;;;;;;7.35;3.53;;;15.00;99.90;;;;;;20747109;28;20095;-40
2022/10/31 20:13:14;;;;;;;7.28;3.30;;;14.90;99.90;;;;;;20737081;28;20183;-40
2022/10/31 20:23:15;;;;;;;5.68;3.03;;;14.80;99.90;;;;;;20757289;28;20068;-39
2022/10/31 20:33:16;;;;;;;5.82;3.15;;;14.80;99.90;;;;;;20743914;28;20205;-39
2022/10/31 20:43:17;;;;;;;5.03;2.10;;;14.80;99.90;;;;;;20744644;28;20133;-40
2022/10/31 20:53:18;;;;;;;5.88;3.03;;;14.70;99.90;;;;;;20729688;28;20123;-40
2022/10/31 21:03:19;;;;;;;3.17;1.70;;;14.70;99.90;;;;;;20738050;28;20076;-40
2022/10/31 21:13:21;;;;;;;5.72;2.40;;;14.80;99.90;;;;;;20743573;28;20052;-40
2022/10/31 21:23:22;;;;;;;5.47;2.50;;;14.90;99.90;;;;;;20740673;28;20600;-40
2022/10/31 21:33:23;;;;;;;9.65;2.55;;;15.00;99.90;;;;;;20741225;28;20087;-40
2022/10/31 21:43:24;;;;;;;4.38;1.67;;;15.00;99.90;;;;;;20765879;28;20073;-39
2022/10/31 22:03:45;;;;;;;4.43;2.40;;;14.80;99.90;;;;;;20735424;28;20956;-39
2022/10/31 22:13:48;;;;;;;5.55;1.95;;;14.80;99.90;;;;;;20738406;28;20096;-39
2022/10/31 22:23:57;;;;;;;8.98;3.40;;;14.70;99.90;;;;;;20736242;28;20131;-40
2022/10/31 22:33:58;;;;;;;3.70;1.38;;;14.70;99.90;;;;;;20741527;28;20426;-40
2022/10/31 22:44:00;;;;;;;5.13;1.58;;;15.10;99.90;;;;;;20758273;28;20138;-39
2022/10/31 22:54:01;;;;;;;5.35;2.45;;;15.30;99.90;;;;;;20760593;28;20155;-39
2022/10/31 23:04:02;;;;;;;4.18;1.77;;;15.30;99.90;;;;;;20767980;28;20486;-39
2022/10/31 23:14:09;;;;;;;5.93;2.97;;;15.00;99.90;;;;;;20755346;28;20143;-39
2022/10/31 23:24:11;;;;;;;5.30;2.40;;;14.90;99.90;;;;;;20741154;28;20093;-39
2022/10/31 23:34:12;;;;;;;8.43;3.03;;;14.90;99.90;;;;;;20759511;28;20070;-39
2022/10/31 23:44:13;;;;;;;5.28;2.28;;;14.80;99.90;;;;;;20740907;28;20135;-39
2022/10/31 23:54:14;;;;;;;5.18;2.75;;;14.70;99.90;;;;;;20750915;28;20050;-39
